createdAt,value
2023-05-01T00:01:06.186Z,9.3
2023-05-01T00:02:13.250Z,9.3
2023-05-01T00:03:19.908Z,9.3
2023-05-01T00:04:26.966Z,9.3
2023-05-01T00:05:34.015Z,9.3
2023-05-01T00:06:41.267Z,9.3
2023-05-01T00:07:48.193Z,9.3
2023-05-01T00:08:54.852Z,9.3
2023-05-01T00:10:01.932Z,9.3
2023-05-01T00:11:09.033Z,9.3
2023-05-01T00:12:16.549Z,9.3
2023-05-01T00:13:23.702Z,9.2
2023-05-01T00:14:29.799Z,9.2
2023-05-01T00:15:36.978Z,9.2
2023-05-01T00:16:44.103Z,9.2
2023-05-01T00:17:51.217Z,9.2
2023-05-01T00:18:58.216Z,9.2
2023-05-01T00:20:04.856Z,9.2
2023-05-01T00:21:11.956Z,9.2
2023-05-01T00:22:19.005Z,9.2
2023-05-01T00:23:26.190Z,9.2
2023-05-01T00:24:33.281Z,9.2
2023-05-01T00:25:39.830Z,9.2
2023-05-01T00:26:47.102Z,9.2
2023-05-01T00:27:54.078Z,9.2
2023-05-01T00:29:01.176Z,9.2
2023-05-01T00:30:08.270Z,9.2
2023-05-01T00:31:14.917Z,9.2
2023-05-01T00:32:22.004Z,9.2
2023-05-01T00:33:29.034Z,9.2
2023-05-01T00:34:36.198Z,9.2
2023-05-01T00:35:43.241Z,9.2
2023-05-01T00:36:50.160Z,9.2
2023-05-01T00:37:56.950Z,9.2
2023-05-01T00:39:04.079Z,9.2
2023-05-01T00:40:11.148Z,9.2
2023-05-01T00:41:18.299Z,9.2
2023-05-01T00:42:24.883Z,9.2
2023-05-01T00:43:32.026Z,9.2
2023-05-01T00:45:46.272Z,9.2
2023-05-01T00:46:53.232Z,9.2
2023-05-01T00:47:59.909Z,9.2
2023-05-01T00:49:06.948Z,9.2
2023-05-01T00:50:14.078Z,9.2
2023-05-01T00:51:21.218Z,9.2
2023-05-01T00:52:28.295Z,9.2
2023-05-01T00:53:34.867Z,9.2
2023-05-01T00:54:42.001Z,9.2
2023-05-01T00:55:49.076Z,9.2
2023-05-01T00:56:56.209Z,9.2
2023-05-01T00:58:03.281Z,9.2
2023-05-01T00:59:09.948Z,9.2
2023-05-01T01:00:16.975Z,9.2
2023-05-01T01:01:24.203Z,9.2
2023-05-01T01:02:31.205Z,9.2
2023-05-01T01:03:38.305Z,9.2
2023-05-01T01:05:52.010Z,9.2
2023-05-01T01:06:59.133Z,9.2
2023-05-01T01:08:06.168Z,9.2
2023-05-01T01:09:13.293Z,9.2
2023-05-01T01:10:19.881Z,9.2
2023-05-01T01:11:27.023Z,9.2
2023-05-01T01:12:34.050Z,9.2
2023-05-01T01:13:41.241Z,9.2
2023-05-01T01:14:47.770Z,9.2
2023-05-01T01:15:54.990Z,9.2
2023-05-01T01:17:02.021Z,9.2
2023-05-01T01:18:09.201Z,9.2
2023-05-01T01:19:16.232Z,9.2
2023-05-01T01:20:22.871Z,9.2
2023-05-01T01:21:29.941Z,9.2
2023-05-01T01:22:37.007Z,9.2
2023-05-01T01:23:44.171Z,9.2
2023-05-01T01:24:51.229Z,9.2
2023-05-01T01:25:57.847Z,9.2
2023-05-01T01:27:04.933Z,9.2
2023-05-01T01:28:12.043Z,9.2
2023-05-01T01:29:19.182Z,9.2
2023-05-01T01:30:26.256Z,9.2
2023-05-01T01:31:32.899Z,9.2
2023-05-01T01:32:39.910Z,9.2
2023-05-01T01:33:47.063Z,9.1
2023-05-01T01:34:54.217Z,9.1
2023-05-01T01:36:01.222Z,9.1
2023-05-01T01:37:07.888Z,9
2023-05-01T01:38:14.910Z,9
2023-05-01T01:39:22.038Z,9
2023-05-01T01:40:29.163Z,9
2023-05-01T01:41:36.770Z,9
2023-05-01T01:42:42.850Z,8.9
2023-05-01T01:43:49.974Z,8.9
2023-05-01T01:44:57.094Z,8.9
2023-05-01T01:46:04.213Z,8.8
2023-05-01T01:47:11.242Z,8.8
2023-05-01T01:49:24.971Z,8.8
2023-05-01T01:50:32.059Z,8.7
2023-05-01T01:51:39.215Z,8.7
2023-05-01T01:52:46.278Z,8.6
2023-05-01T01:53:52.913Z,8.6
2023-05-01T01:54:59.970Z,8.6
2023-05-01T01:56:07.119Z,8.6
2023-05-01T01:57:14.132Z,8.6
2023-05-01T01:58:21.263Z,8.5
2023-05-01T01:59:27.899Z,8.5
2023-05-01T02:00:34.962Z,8.5
2023-05-01T02:01:42.226Z,8.5
2023-05-01T02:02:49.274Z,8.5
2023-05-01T02:03:56.372Z,8.4
2023-05-01T02:05:02.809Z,8.3
2023-05-01T02:06:10.025Z,8.3
2023-05-01T02:07:17.058Z,8.3
2023-05-01T02:08:24.165Z,8.3
2023-05-01T02:09:31.302Z,8.2
2023-05-01T02:10:37.880Z,8.2
2023-05-01T02:11:45.045Z,8.1
2023-05-01T02:12:52.121Z,8.1
2023-05-01T02:13:59.157Z,8.1
2023-05-01T02:15:05.825Z,8
2023-05-01T02:16:12.988Z,8
2023-05-01T02:17:20.039Z,8
2023-05-01T02:18:27.104Z,7.9
2023-05-01T02:19:34.161Z,7.9
2023-05-01T02:20:41.323Z,7.9
2023-05-01T02:21:47.993Z,7.9
2023-05-01T02:22:54.981Z,7.9
2023-05-01T02:24:02.127Z,7.8
2023-05-01T02:25:09.240Z,7.8
2023-05-01T02:26:15.778Z,7.8
2023-05-01T02:27:22.898Z,7.8
2023-05-01T02:28:30.055Z,7.8
2023-05-01T02:29:37.129Z,7.8
2023-05-01T02:30:44.268Z,7.8
2023-05-01T02:31:50.801Z,7.8
2023-05-01T02:34:05.025Z,7.7
2023-05-01T02:35:12.152Z,7.7
2023-05-01T02:36:19.208Z,7.7
2023-05-01T02:37:25.838Z,7.7
2023-05-01T02:38:32.871Z,7.7
2023-05-01T02:39:40.040Z,7.7
2023-05-01T02:40:47.204Z,7.7
2023-05-01T02:41:54.233Z,7.6
2023-05-01T02:43:00.834Z,7.6
2023-05-01T02:44:07.932Z,7.6
2023-05-01T02:45:15.040Z,7.6
2023-05-01T02:46:22.217Z,7.6
2023-05-01T02:47:29.305Z,7.6
2023-05-01T02:48:35.805Z,7.6
2023-05-01T02:49:42.950Z,7.6
2023-05-01T02:50:50.014Z,7.6
2023-05-01T02:53:04.233Z,7.6
2023-05-01T02:54:10.784Z,7.5
2023-05-01T02:55:17.954Z,7.5
2023-05-01T02:56:25.076Z,7.5
2023-05-01T02:57:32.178Z,7.4
2023-05-01T02:58:39.244Z,7.4
2023-05-01T02:59:45.817Z,7.5
2023-05-01T03:00:52.945Z,7.4
2023-05-01T03:02:00.030Z,7.4
2023-05-01T03:03:07.200Z,7.4
2023-05-01T03:04:14.314Z,7.4
2023-05-01T03:05:20.859Z,7.4
2023-05-01T03:06:28.028Z,7.4
2023-05-01T03:07:35.117Z,7.4
2023-05-01T03:08:42.297Z,7.4
2023-05-01T03:09:49.750Z,7.4
2023-05-01T03:10:55.838Z,7.3
2023-05-01T03:12:02.939Z,7.3
2023-05-01T03:13:10.045Z,7.3
2023-05-01T03:14:17.186Z,7.3
2023-05-01T03:15:24.233Z,7.3
2023-05-01T03:16:30.913Z,7.2
2023-05-01T03:17:38.030Z,7.2
2023-05-01T03:18:45.136Z,7.2
2023-05-01T03:19:52.191Z,7.2
2023-05-01T03:20:59.503Z,7.2
2023-05-01T03:22:07.914Z,7.2
2023-05-01T03:23:12.932Z,7.2
2023-05-01T03:24:20.072Z,7.2
2023-05-01T03:25:27.172Z,7.2
2023-05-01T03:26:34.270Z,7.2
2023-05-01T03:27:40.878Z,7.2
2023-05-01T03:28:48.013Z,7.2
2023-05-01T03:29:55.398Z,7.2
2023-05-01T03:31:02.192Z,7.2
2023-05-01T03:32:08.851Z,7.2
2023-05-01T03:33:15.975Z,7.2
2023-05-01T03:34:23.011Z,7.2
2023-05-01T03:35:30.069Z,7.2
2023-05-01T03:36:37.218Z,7.2
2023-05-01T03:37:44.329Z,7.1
2023-05-01T03:38:50.834Z,7.1
2023-05-01T03:39:58.327Z,7.1
2023-05-01T03:41:05.081Z,7.1
2023-05-01T03:42:12.174Z,7
2023-05-01T03:43:19.293Z,7.1
2023-05-01T03:44:25.934Z,7
2023-05-01T03:45:33.020Z,7
2023-05-01T03:46:40.113Z,7
2023-05-01T03:47:47.268Z,6.9
2023-05-01T03:48:53.816Z,6.9
2023-05-01T03:50:00.850Z,6.9
2023-05-01T03:51:07.996Z,6.8
2023-05-01T03:52:15.098Z,6.9
2023-05-01T03:53:22.171Z,6.9
2023-05-01T03:54:28.830Z,6.9
2023-05-01T03:56:42.965Z,6.8
2023-05-01T03:57:50.196Z,6.8
2023-05-01T03:58:57.272Z,6.8
2023-05-01T04:00:03.767Z,6.8
2023-05-01T04:02:18.082Z,6.8
2023-05-01T04:03:25.181Z,6.8
2023-05-01T04:04:32.381Z,6.8
2023-05-01T04:05:38.813Z,6.8
2023-05-01T04:06:46.129Z,6.8
2023-05-01T04:07:53.055Z,6.8
2023-05-01T04:09:00.177Z,6.8
2023-05-01T04:10:07.372Z,6.8
2023-05-01T04:11:13.831Z,6.7
2023-05-01T04:12:20.952Z,6.7
2023-05-01T04:13:28.120Z,6.7
2023-05-01T04:14:35.203Z,6.7
2023-05-01T04:15:42.237Z,6.7
2023-05-01T04:16:48.881Z,6.7
2023-05-01T04:17:56.008Z,6.7
2023-05-01T04:19:03.067Z,6.7
2023-05-01T04:20:10.243Z,6.7
2023-05-01T04:21:17.263Z,6.7
2023-05-01T04:22:23.851Z,6.6
2023-05-01T04:23:30.937Z,6.6
2023-05-01T04:24:38.079Z,6.6
2023-05-01T04:25:45.140Z,6.6
2023-05-01T04:26:52.271Z,6.6
2023-05-01T04:27:58.888Z,6.5
2023-05-01T04:29:05.993Z,6.5
2023-05-01T04:30:13.045Z,6.5
2023-05-01T04:31:20.194Z,6.5
2023-05-01T04:32:27.355Z,6.5
2023-05-01T04:33:33.890Z,6.5
2023-05-01T04:34:41.000Z,6.5
2023-05-01T04:35:48.087Z,6.5
2023-05-01T04:36:55.183Z,6.5
2023-05-01T04:38:02.236Z,6.5
2023-05-01T04:39:08.914Z,6.5
2023-05-01T04:40:16.019Z,6.5
2023-05-01T04:41:23.024Z,6.5
2023-05-01T04:42:30.218Z,6.5
2023-05-01T04:43:37.265Z,6.5
2023-05-01T04:44:43.827Z,6.5
2023-05-01T04:45:50.940Z,6.5
2023-05-01T04:46:58.102Z,6.5
2023-05-01T04:48:05.207Z,6.5
2023-05-01T04:49:12.339Z,6.5
2023-05-01T04:50:18.902Z,6.5
2023-05-01T04:51:26.003Z,6.5
2023-05-01T04:52:33.077Z,6.5
2023-05-01T04:53:40.203Z,6.5
2023-05-01T04:54:47.342Z,6.5
2023-05-01T04:55:53.896Z,6.5
2023-05-01T04:57:00.968Z,6.5
2023-05-01T04:58:08.093Z,6.5
2023-05-01T05:00:22.290Z,6.5
2023-05-01T05:01:29.017Z,6.5
2023-05-01T05:02:36.134Z,6.5
2023-05-01T05:03:43.249Z,6.5
2023-05-01T05:04:50.275Z,6.5
2023-05-01T05:05:56.873Z,6.4
2023-05-01T05:07:03.904Z,6.4
2023-05-01T05:08:11.007Z,6.5
2023-05-01T05:09:20.156Z,6.5
2023-05-01T05:10:25.238Z,6.5
2023-05-01T05:11:31.823Z,6.4
2023-05-01T05:12:38.892Z,6.5
2023-05-01T05:13:46.001Z,6.5
2023-05-01T05:14:53.145Z,6.5
2023-05-01T05:16:00.342Z,6.5
2023-05-01T05:17:06.832Z,6.4
2023-05-01T05:18:13.984Z,6.5
2023-05-01T05:19:21.084Z,6.4
2023-05-01T05:20:28.224Z,6.5
2023-05-01T05:21:35.230Z,6.4
2023-05-01T05:22:41.770Z,6.5
2023-05-01T05:23:48.960Z,6.5
2023-05-01T05:24:56.087Z,6.4
2023-05-01T05:26:03.126Z,6.4
2023-05-01T05:27:10.235Z,6.5
2023-05-01T05:28:16.833Z,6.5
2023-05-01T05:30:31.101Z,6.4
2023-05-01T05:31:38.280Z,6.4
2023-05-01T05:32:45.286Z,6.4
2023-05-01T05:33:51.856Z,6.5
2023-05-01T05:34:58.920Z,6.5
2023-05-01T05:36:06.048Z,6.5
2023-05-01T05:37:13.104Z,6.5
2023-05-01T05:38:20.234Z,6.5
2023-05-01T05:39:26.890Z,6.5
2023-05-01T05:40:35.819Z,6.5
2023-05-01T05:41:41.062Z,6.5
2023-05-01T05:42:48.174Z,6.5
2023-05-01T05:43:55.287Z,6.6
2023-05-01T05:45:01.822Z,6.6
2023-05-01T05:46:09.033Z,6.6
2023-05-01T05:47:16.105Z,6.6
2023-05-01T05:48:23.229Z,6.6
2023-05-01T05:49:30.301Z,6.6
2023-05-01T05:50:36.876Z,6.6
2023-05-01T05:51:44.002Z,6.7
2023-05-01T05:52:51.047Z,6.7
2023-05-01T05:53:58.157Z,6.6
2023-05-01T05:55:05.261Z,6.7
2023-05-01T05:56:11.849Z,6.7
2023-05-01T05:57:19.038Z,6.7
2023-05-01T05:58:26.066Z,6.7
2023-05-01T05:59:33.242Z,6.7
2023-05-01T06:00:40.311Z,6.7
2023-05-01T06:01:46.891Z,6.8
2023-05-01T06:04:01.058Z,6.8
2023-05-01T06:05:08.337Z,6.8
2023-05-01T06:06:15.436Z,6.8
2023-05-01T06:07:21.834Z,6.8
2023-05-01T06:08:28.978Z,6.8
2023-05-01T06:09:36.082Z,6.8
2023-05-01T06:10:43.199Z,6.8
2023-05-01T06:11:50.306Z,6.8
2023-05-01T06:13:02.616Z,6.8
2023-05-01T06:14:04.029Z,6.8
2023-05-01T06:15:11.108Z,6.8
2023-05-01T06:16:18.303Z,6.8
2023-05-01T06:17:25.295Z,6.8
2023-05-01T06:18:31.894Z,6.8
2023-05-01T06:19:39.024Z,6.8
2023-05-01T06:20:46.130Z,6.9
2023-05-01T06:21:53.179Z,6.9
2023-05-01T06:23:00.299Z,6.9
2023-05-01T06:24:06.962Z,6.9
2023-05-01T06:25:13.975Z,6.9
2023-05-01T06:26:21.098Z,7
2023-05-01T06:27:28.239Z,7
2023-05-01T06:28:35.372Z,7
2023-05-01T06:29:41.911Z,7
2023-05-01T06:30:49.005Z,7.1
2023-05-01T06:31:56.247Z,7.1
2023-05-01T06:33:03.400Z,7.1
2023-05-01T06:34:10.371Z,7
2023-05-01T06:35:16.936Z,7
2023-05-01T06:36:24.099Z,7
2023-05-01T06:37:31.111Z,7
2023-05-01T06:38:38.252Z,7.1
2023-05-01T06:39:44.801Z,7.2
2023-05-01T06:40:51.929Z,7.4
2023-05-01T06:41:59.023Z,7.5
2023-05-01T06:43:06.151Z,7.6
2023-05-01T06:44:13.250Z,7.9
2023-05-01T06:45:19.820Z,8.2
2023-05-01T06:46:26.956Z,8.4
2023-05-01T06:47:34.101Z,8.7
2023-05-01T06:48:41.102Z,8.8
2023-05-01T06:49:48.304Z,9
2023-05-01T06:50:55.347Z,9.2
2023-05-01T06:52:01.929Z,9.4
2023-05-01T06:53:09.058Z,9.6
2023-05-01T06:54:16.180Z,9.7
2023-05-01T06:55:23.261Z,10
2023-05-01T06:56:29.861Z,10.1
2023-05-01T06:58:44.006Z,10.2
2023-05-01T06:59:51.201Z,10.3
2023-05-01T07:00:58.303Z,10.3
2023-05-01T07:02:08.128Z,10.4
2023-05-01T07:03:12.019Z,10.4
2023-05-01T07:04:19.162Z,10.4
2023-05-01T07:05:26.202Z,10.4
2023-05-01T07:07:44.603Z,10.5
2023-05-01T07:08:47.005Z,10.7
2023-05-01T07:09:54.046Z,10.8
2023-05-01T07:11:01.139Z,10.9
2023-05-01T07:12:08.267Z,11
2023-05-01T07:13:14.856Z,10.9
2023-05-01T07:14:21.968Z,11
2023-05-01T07:15:29.062Z,11
2023-05-01T07:16:36.321Z,11.2
2023-05-01T07:17:43.367Z,11.2
2023-05-01T07:18:49.863Z,11.2
2023-05-01T07:19:57.202Z,11
2023-05-01T07:21:04.087Z,11.1
2023-05-01T07:22:11.207Z,11
2023-05-01T07:23:18.402Z,10.8
2023-05-01T07:24:24.877Z,10.5
2023-05-01T07:25:31.977Z,10.3
2023-05-01T07:26:39.047Z,10.3
2023-05-01T07:27:46.233Z,10.1
2023-05-01T07:28:53.286Z,10
2023-05-01T07:29:59.965Z,10
2023-05-01T07:31:07.021Z,9.9
2023-05-01T07:32:14.118Z,9.8
2023-05-01T07:33:21.240Z,9.9
2023-05-01T07:34:28.441Z,10
2023-05-01T07:35:34.917Z,9.9
2023-05-01T07:36:41.999Z,9.7
2023-05-01T07:37:49.124Z,9.6
2023-05-01T07:38:56.230Z,9.5
2023-05-01T07:40:03.354Z,9.4
2023-05-01T07:41:09.940Z,9.4
2023-05-01T07:42:17.000Z,9.4
2023-05-01T07:43:24.103Z,9.4
2023-05-01T07:44:31.207Z,9.5
2023-05-01T07:45:38.376Z,9.5
2023-05-01T07:46:44.933Z,9.5
2023-05-01T07:47:52.061Z,9.3
2023-05-01T07:48:59.108Z,9.3
2023-05-01T07:50:06.269Z,9.3
2023-05-01T07:51:13.297Z,9.3
2023-05-01T07:52:19.949Z,9.2
2023-05-01T07:53:27.052Z,9.1
2023-05-01T07:54:34.088Z,9.1
2023-05-01T07:55:41.270Z,9
2023-05-01T07:56:49.757Z,8.9
2023-05-01T07:57:54.912Z,8.9
2023-05-01T07:59:02.040Z,8.8
2023-05-01T08:00:09.162Z,8.8
2023-05-01T08:01:16.333Z,8.7
2023-05-01T08:02:22.826Z,8.6
2023-05-01T08:03:30.110Z,8.6
2023-05-01T08:04:37.256Z,8.6
2023-05-01T08:05:44.148Z,8.6
2023-05-01T08:06:51.356Z,8.5
2023-05-01T08:07:57.849Z,8.4
2023-05-01T08:09:04.961Z,8.3
2023-05-01T08:11:19.350Z,8.2
2023-05-01T08:12:26.236Z,8.2
2023-05-01T08:13:32.839Z,8.2
2023-05-01T08:14:40.020Z,8.2
2023-05-01T08:15:47.302Z,8.3
2023-05-01T08:16:54.158Z,8.3
2023-05-01T08:18:01.284Z,8.2
2023-05-01T08:19:07.883Z,8.2
2023-05-01T08:20:15.028Z,8.2
2023-05-01T08:21:22.057Z,8.2
2023-05-01T08:22:29.273Z,8.2
2023-05-01T08:23:36.309Z,8.2
2023-05-01T08:24:42.890Z,8.2
2023-05-01T08:25:49.946Z,8.2
2023-05-01T08:26:57.105Z,8.3
2023-05-01T08:28:04.161Z,8.4
2023-05-01T08:29:11.323Z,8.6
2023-05-01T08:30:17.892Z,8.8
2023-05-01T08:31:25.062Z,8.8
2023-05-01T08:32:32.102Z,8.8
2023-05-01T08:33:39.166Z,8.7
2023-05-01T08:34:46.359Z,8.6
2023-05-01T08:35:52.833Z,8.6
2023-05-01T08:36:59.982Z,8.6
2023-05-01T08:38:07.086Z,8.5
2023-05-01T08:39:14.246Z,8.6
2023-05-01T08:40:21.283Z,8.7
2023-05-01T08:41:27.876Z,8.9
2023-05-01T08:42:35.049Z,8.9
2023-05-01T08:43:42.094Z,9.1
2023-05-01T08:44:49.253Z,9.2
2023-05-01T08:45:56.340Z,9.2
2023-05-01T08:47:02.969Z,9.3
2023-05-01T08:48:10.089Z,9.4
2023-05-01T08:49:17.130Z,9.3
2023-05-01T08:50:24.204Z,9.2
2023-05-01T08:51:31.279Z,9.1
2023-05-01T08:52:37.905Z,9.1
2023-05-01T08:53:44.995Z,8.9
2023-05-01T08:54:52.096Z,8.8
2023-05-01T08:55:59.222Z,8.8
2023-05-01T08:57:07.751Z,8.7
2023-05-01T08:58:12.856Z,8.7
2023-05-01T08:59:20.133Z,8.8
2023-05-01T09:00:27.100Z,8.8
2023-05-01T09:01:34.307Z,8.8
2023-05-01T09:02:41.319Z,8.8
2023-05-01T09:03:48.008Z,8.8
2023-05-01T09:04:55.084Z,8.7
2023-05-01T09:06:02.153Z,8.6
2023-05-01T09:07:09.222Z,8.6
2023-05-01T09:08:16.340Z,8.5
2023-05-01T09:09:22.900Z,8.5
2023-05-01T09:10:31.754Z,8.5
2023-05-01T09:11:37.136Z,8.6
2023-05-01T09:12:44.216Z,8.6
2023-05-01T09:14:57.985Z,8.6
2023-05-01T09:16:05.037Z,8.7
2023-05-01T09:17:12.134Z,8.7
2023-05-01T09:18:19.274Z,8.6
2023-05-01T09:19:25.827Z,8.6
2023-05-01T09:20:32.885Z,8.6
2023-05-01T09:21:40.088Z,8.5
2023-05-01T09:22:47.147Z,8.5
2023-05-01T09:23:54.247Z,8.5
2023-05-01T09:25:00.875Z,8.5
2023-05-01T09:26:08.029Z,8.4
2023-05-01T09:27:15.053Z,8.3
2023-05-01T09:28:22.155Z,8.2
2023-05-01T09:29:29.246Z,8.2
2023-05-01T09:30:35.851Z,8.2
2023-05-01T09:31:42.939Z,8.3
2023-05-01T09:32:50.121Z,8.3
2023-05-01T09:33:57.165Z,8.4
2023-05-01T09:35:04.349Z,8.4
2023-05-01T09:36:10.861Z,8.3
2023-05-01T09:37:17.989Z,8.4
2023-05-01T09:38:25.119Z,8.4
2023-05-01T09:39:32.177Z,8.5
2023-05-01T09:40:39.276Z,8.5
2023-05-01T09:41:45.861Z,8.5
2023-05-01T09:42:52.974Z,8.5
2023-05-01T09:44:00.150Z,8.4
2023-05-01T09:45:07.219Z,8.4
2023-05-01T09:46:14.284Z,8.4
2023-05-01T09:47:20.954Z,8.3
2023-05-01T09:48:28.055Z,8.3
2023-05-01T09:49:35.118Z,8.2
2023-05-01T09:50:42.167Z,8.2
2023-05-01T09:51:49.306Z,8.2
2023-05-01T09:52:55.902Z,8.2
2023-05-01T09:54:02.965Z,8.2
2023-05-01T09:55:10.102Z,8.2
2023-05-01T09:56:17.202Z,8.2
2023-05-01T09:57:24.304Z,8.3
2023-05-01T09:58:30.970Z,8.3
2023-05-01T09:59:38.065Z,8.3
2023-05-01T10:00:45.111Z,8.3
2023-05-01T10:01:52.308Z,8.4
2023-05-01T10:02:59.395Z,8.4
2023-05-01T10:04:05.959Z,8.4
2023-05-01T10:05:12.960Z,8.3
2023-05-01T10:06:20.194Z,8.3
2023-05-01T10:07:27.277Z,8.3
2023-05-01T10:08:34.310Z,8.4
2023-05-01T10:09:40.915Z,8.4
2023-05-01T10:10:48.024Z,8.4
2023-05-01T10:11:55.138Z,8.4
2023-05-01T10:13:02.198Z,8.5
2023-05-01T10:14:09.342Z,8.6
2023-05-01T10:15:24.455Z,8.8
2023-05-01T10:16:23.060Z,9
2023-05-01T10:18:37.232Z,9.2
2023-05-01T10:19:44.471Z,9.3
2023-05-01T10:20:50.899Z,9.5
2023-05-01T10:21:58.048Z,9.6
2023-05-01T10:23:05.118Z,9.7
2023-05-01T10:24:12.284Z,9.7
2023-05-01T10:25:18.877Z,9.7
2023-05-01T10:26:25.969Z,9.7
2023-05-01T10:27:33.041Z,9.7
2023-05-01T10:28:40.120Z,9.6
2023-05-01T10:29:47.334Z,9.6
2023-05-01T10:32:01.020Z,9.6
2023-05-01T10:33:08.151Z,9.6
2023-05-01T10:34:15.181Z,9.6
2023-05-01T10:35:22.299Z,9.7
2023-05-01T10:36:28.878Z,9.6
2023-05-01T10:37:35.988Z,9.5
2023-05-01T10:38:43.044Z,9.4
2023-05-01T10:39:50.255Z,9.4
2023-05-01T10:40:57.286Z,9.3
2023-05-01T10:42:03.998Z,9.3
2023-05-01T10:43:10.957Z,9.3
2023-05-01T10:44:18.101Z,9.2
2023-05-01T10:45:25.147Z,9.2
2023-05-01T10:46:32.271Z,9.2
2023-05-01T10:47:38.871Z,9.1
2023-05-01T10:48:45.991Z,9.3
2023-05-01T10:49:53.055Z,9.5
2023-05-01T10:51:00.197Z,9.5
2023-05-01T10:52:08.184Z,9.5
2023-05-01T10:53:13.861Z,9.5
2023-05-01T10:54:20.947Z,9.5
2023-05-01T10:55:28.112Z,9.4
2023-05-01T10:56:35.202Z,9.3
2023-05-01T10:57:42.264Z,9.2
2023-05-01T10:58:48.898Z,9.1
2023-05-01T10:59:55.980Z,9.1
2023-05-01T11:01:03.032Z,9.1
2023-05-01T11:02:10.241Z,9.1
2023-05-01T11:03:17.289Z,9.1
2023-05-01T11:04:23.841Z,9.1
2023-05-01T11:05:38.532Z,9
2023-05-01T11:06:38.310Z,9.1
2023-05-01T11:07:45.198Z,9.1
2023-05-01T11:08:52.329Z,9
2023-05-01T11:09:58.988Z,9
2023-05-01T11:11:06.013Z,9
2023-05-01T11:12:13.091Z,9
2023-05-01T11:13:20.224Z,9.1
2023-05-01T11:14:27.280Z,9.1
2023-05-01T11:15:33.980Z,9.1
2023-05-01T11:16:41.001Z,9.1
2023-05-01T11:17:48.117Z,9.1
2023-05-01T11:18:55.251Z,9.1
2023-05-01T11:20:02.348Z,9.1
2023-05-01T11:22:15.981Z,9.1
2023-05-01T11:23:23.107Z,9.2
2023-05-01T11:24:30.183Z,9.2
2023-05-01T11:25:37.381Z,9.2
2023-05-01T11:26:43.903Z,9.3
2023-05-01T11:27:51.002Z,9.5
2023-05-01T11:28:58.112Z,9.5
2023-05-01T11:30:05.210Z,9.5
2023-05-01T11:31:12.350Z,9.5
2023-05-01T11:32:19.188Z,9.6
2023-05-01T11:33:26.106Z,9.7
2023-05-01T11:34:33.117Z,9.7
2023-05-01T11:35:40.218Z,9.6
2023-05-01T11:36:47.364Z,9.5
2023-05-01T11:37:53.940Z,9.5
2023-05-01T11:39:01.012Z,9.4
2023-05-01T11:40:08.175Z,9.3
2023-05-01T11:41:15.217Z,9.2
2023-05-01T11:42:21.890Z,9.2
2023-05-01T11:43:28.948Z,9.1
2023-05-01T11:44:36.079Z,9.1
2023-05-01T11:45:43.128Z,9.1
2023-05-01T11:46:50.229Z,9.1
2023-05-01T11:47:56.902Z,9.2
2023-05-01T11:49:03.919Z,9.2
2023-05-01T11:50:11.143Z,9.2
2023-05-01T11:51:18.151Z,9.3
2023-05-01T11:52:25.260Z,9.3
2023-05-01T11:53:31.813Z,9.3
2023-05-01T11:54:38.915Z,9.4
2023-05-01T11:55:46.101Z,9.5
2023-05-01T11:56:53.191Z,9.6
2023-05-01T11:58:00.315Z,9.8
2023-05-01T12:00:13.951Z,9.8
2023-05-01T12:01:21.037Z,9.8
2023-05-01T12:02:28.212Z,9.7
2023-05-01T12:03:35.318Z,9.6
2023-05-01T12:04:41.849Z,9.6
2023-05-01T12:05:49.048Z,9.6
2023-05-01T12:06:56.059Z,9.5
2023-05-01T12:08:03.120Z,9.4
2023-05-01T12:09:10.281Z,9.3
2023-05-01T12:10:16.879Z,9.2
2023-05-01T12:11:23.956Z,9.2
2023-05-01T12:12:31.054Z,9
2023-05-01T12:13:38.161Z,9
2023-05-01T12:14:45.298Z,9.1
2023-05-01T12:15:51.823Z,9
2023-05-01T12:16:59.060Z,9
2023-05-01T12:18:06.138Z,9
2023-05-01T12:19:13.147Z,9
2023-05-01T12:20:20.278Z,9
2023-05-01T12:21:26.893Z,9.1
2023-05-01T12:22:33.952Z,9.1
2023-05-01T12:23:41.112Z,9.1
2023-05-01T12:25:55.372Z,9.3
2023-05-01T12:27:01.897Z,9.4
2023-05-01T12:28:09.010Z,9.4
2023-05-01T12:29:16.093Z,9.4
2023-05-01T12:30:23.200Z,9.4
2023-05-01T12:31:30.481Z,9.4
2023-05-01T12:32:36.938Z,9.4
2023-05-01T12:33:44.012Z,9.3
2023-05-01T12:34:51.096Z,9.3
2023-05-01T12:35:58.160Z,9.3
2023-05-01T12:37:05.514Z,9.3
2023-05-01T12:38:11.880Z,9.3
2023-05-01T12:39:19.031Z,9.3
2023-05-01T12:40:26.084Z,9.3
2023-05-01T12:41:33.181Z,9.3
2023-05-01T12:42:40.284Z,9.4
2023-05-01T12:43:46.939Z,9.4
2023-05-01T12:44:54.028Z,9.4
2023-05-01T12:46:01.126Z,9.4
2023-05-01T12:47:08.217Z,9.4
2023-05-01T12:48:15.419Z,9.4
2023-05-01T12:49:21.893Z,9.4
2023-05-01T12:50:29.067Z,9.3
2023-05-01T12:51:36.100Z,9.3
2023-05-01T12:52:43.228Z,9.3
2023-05-01T12:53:50.117Z,9.3
2023-05-01T12:54:57.064Z,9.3
2023-05-01T12:56:04.005Z,9.3
2023-05-01T12:57:11.116Z,9.3
2023-05-01T12:58:18.214Z,9.3
2023-05-01T12:59:24.841Z,9.4
2023-05-01T13:00:31.970Z,9.4
2023-05-01T13:01:39.094Z,9.4
2023-05-01T13:02:46.143Z,9.4
2023-05-01T13:03:53.244Z,9.4
2023-05-01T13:04:59.841Z,9.3
2023-05-01T13:06:06.949Z,9.3
2023-05-01T13:07:13.991Z,9.3
2023-05-01T13:08:21.109Z,9.3
2023-05-01T13:09:28.281Z,9.3
2023-05-01T13:10:34.975Z,9.3
2023-05-01T13:11:41.891Z,9.3
2023-05-01T13:12:49.153Z,9.4
2023-05-01T13:13:56.181Z,9.3
2023-05-01T13:15:03.259Z,9.4
2023-05-01T13:16:09.998Z,9.4
2023-05-01T13:17:16.989Z,9.4
2023-05-01T13:18:24.051Z,9.3
2023-05-01T13:19:31.131Z,9.4
2023-05-01T13:20:38.291Z,9.5
2023-05-01T13:21:44.918Z,9.4
2023-05-01T13:22:51.913Z,9.5
2023-05-01T13:23:59.031Z,9.5
2023-05-01T13:25:06.214Z,9.5
2023-05-01T13:26:13.288Z,9.5
2023-05-01T13:29:34.068Z,9.6
2023-05-01T13:30:41.165Z,9.5
2023-05-01T13:31:48.293Z,9.5
2023-05-01T13:32:54.876Z,9.5
2023-05-01T13:34:01.931Z,9.5
2023-05-01T13:35:09.097Z,9.5
2023-05-01T13:36:25.369Z,9.6
2023-05-01T13:37:23.238Z,9.5
2023-05-01T13:38:29.878Z,9.5
2023-05-01T13:39:36.989Z,9.5
2023-05-01T13:40:44.040Z,9.5
2023-05-01T13:41:51.199Z,9.4
2023-05-01T13:42:58.413Z,9.5
2023-05-01T13:44:04.891Z,9.5
2023-05-01T13:45:11.978Z,9.5
2023-05-01T13:46:19.168Z,9.5
2023-05-01T13:47:26.303Z,9.5
2023-05-01T13:48:33.282Z,9.5
2023-05-01T13:49:39.904Z,9.4
2023-05-01T13:50:47.017Z,9.3
2023-05-01T13:51:54.084Z,9.3
2023-05-01T13:53:01.184Z,9.3
2023-05-01T13:54:08.344Z,9.3
2023-05-01T13:55:14.924Z,9.3
2023-05-01T13:56:22.269Z,9.4
2023-05-01T13:57:29.124Z,9.4
2023-05-01T13:58:36.155Z,9.3
2023-05-01T13:59:43.287Z,9.3
2023-05-01T14:00:50.026Z,9.3
2023-05-01T14:01:57.188Z,9.3
2023-05-01T14:03:04.192Z,9.3
2023-05-01T14:04:11.198Z,9.3
2023-05-01T14:05:18.343Z,9.3
2023-05-01T14:06:24.955Z,9.3
2023-05-01T14:07:32.012Z,9.3
2023-05-01T14:08:39.212Z,9.1
2023-05-01T14:09:46.225Z,9.1
2023-05-01T14:10:53.348Z,9.1
2023-05-01T14:11:59.891Z,9.1
2023-05-01T14:13:07.026Z,9.2
2023-05-01T14:14:14.142Z,9.2
2023-05-01T14:15:21.191Z,9.2
2023-05-01T14:16:28.430Z,9.3
2023-05-01T14:17:35.030Z,9.3
2023-05-01T14:18:41.995Z,9.2
2023-05-01T14:19:49.266Z,9.2
2023-05-01T14:20:56.233Z,9.1
2023-05-01T14:22:02.796Z,9.1
2023-05-01T14:23:09.883Z,9.2
2023-05-01T14:24:17.094Z,9.1
2023-05-01T14:25:24.153Z,9.1
2023-05-01T14:26:31.198Z,9.1
2023-05-01T14:27:37.811Z,9.1
2023-05-01T14:28:44.950Z,9.1
2023-05-01T14:29:52.030Z,9.2
2023-05-01T14:30:59.185Z,9.2
2023-05-01T14:33:12.851Z,9.2
2023-05-01T14:34:19.919Z,9.2
2023-05-01T14:35:27.096Z,9.2
2023-05-01T14:36:34.213Z,9.2
2023-05-01T14:37:41.240Z,9.2
2023-05-01T14:38:47.826Z,9.2
2023-05-01T14:39:54.942Z,9.3
2023-05-01T14:41:02.083Z,9.3
2023-05-01T14:42:09.188Z,9.3
2023-05-01T14:43:16.250Z,9.3
2023-05-01T14:44:22.853Z,9.4
2023-05-01T14:45:30.082Z,9.4
2023-05-01T14:46:37.152Z,9.4
2023-05-01T14:47:44.242Z,9.4
2023-05-01T14:48:51.237Z,9.4
2023-05-01T14:49:57.901Z,9.3
2023-05-01T14:51:04.998Z,9.4
2023-05-01T14:52:12.061Z,9.3
2023-05-01T14:53:19.181Z,9.3
2023-05-01T14:54:26.308Z,9.3
2023-05-01T14:56:40.001Z,9.4
2023-05-01T14:57:47.099Z,9.4
2023-05-01T14:58:54.183Z,9.4
2023-05-01T15:00:01.363Z,9.4
2023-05-01T15:01:07.871Z,9.4
2023-05-01T15:02:15.234Z,9.4
2023-05-01T15:03:22.240Z,9.3
2023-05-01T15:04:29.359Z,9.3
2023-05-01T15:05:36.326Z,9.3
2023-05-01T15:06:42.863Z,9.3
2023-05-01T15:07:49.994Z,9.2
2023-05-01T15:08:57.092Z,9.1
2023-05-01T15:10:04.165Z,9.1
2023-05-01T15:11:11.286Z,9.2
2023-05-01T15:12:17.919Z,9.2
2023-05-01T15:13:25.002Z,9.2
2023-05-01T15:14:32.080Z,9.2
2023-05-01T15:15:39.271Z,9.3
2023-05-01T15:16:46.427Z,9.3
2023-05-01T15:17:52.959Z,9.3
2023-05-01T15:19:00.025Z,9.2
2023-05-01T15:20:07.144Z,9.2
2023-05-01T15:21:14.231Z,9.2
2023-05-01T15:22:21.328Z,9.3
2023-05-01T15:23:27.927Z,9.3
2023-05-01T15:24:35.063Z,9.3
2023-05-01T15:25:42.179Z,9.3
2023-05-01T15:26:49.274Z,9.3
2023-05-01T15:27:56.325Z,9.3
2023-05-01T15:29:02.997Z,9.2
2023-05-01T15:30:10.046Z,9.2
2023-05-01T15:31:17.247Z,9.2
2023-05-01T15:32:24.332Z,9.2
2023-05-01T15:33:31.437Z,9.2
2023-05-01T15:34:37.960Z,9.2
2023-05-01T15:36:52.119Z,9.2
2023-05-01T15:37:59.279Z,9.2
2023-05-01T15:39:05.876Z,9.2
2023-05-01T15:40:12.989Z,9.2
2023-05-01T15:41:20.090Z,9.2
2023-05-01T15:42:27.185Z,9.2
2023-05-01T15:43:34.257Z,9.3
2023-05-01T15:44:40.826Z,9.3
2023-05-01T15:45:48.093Z,9.3
2023-05-01T15:46:55.221Z,9.2
2023-05-01T15:48:02.266Z,9.2
2023-05-01T15:49:09.262Z,9.1
2023-05-01T15:50:15.886Z,9.1
2023-05-01T15:51:22.919Z,9.2
2023-05-01T15:52:30.026Z,9.1